sensor_id;sensor_type;location;lat;lon;timestamp;P1;durP1;ratioP1;P2;durP2;ratioP2
28007;SDS011;15333;50.010;20.020;2022-12-07T00:02:04;34.42;;;19.13;;
28007;SDS011;15333;50.010;20.020;2022-12-07T00:05:05;38.15;;;19.42;;
28007;SDS011;15333;50.010;20.020;2022-12-07T00:08:06;30.85;;;16.92;;
28007;SDS011;15333;50.010;20.020;2022-12-07T00:11:11;32.65;;;18.15;;
28007;SDS011;15333;50.010;20.020;2022-12-07T00:14:15;30.55;;;17.10;;
28007;SDS011;15333;50.010;20.020;2022-12-07T00:17:17;28.15;;;16.02;;
28007;SDS011;15333;50.010;20.020;2022-12-07T00:20:18;29.65;;;17.58;;
28007;SDS011;15333;50.010;20.020;2022-12-07T00:23:19;30.23;;;17.15;;
28007;SDS011;15333;50.010;20.020;2022-12-07T00:26:23;29.13;;;16.80;;
28007;SDS011;15333;50.010;20.020;2022-12-07T00:29:24;30.58;;;16.15;;
28007;SDS011;15333;50.010;20.020;2022-12-07T00:32:26;29.15;;;16.35;;
28007;SDS011;15333;50.010;20.020;2022-12-07T00:35:27;29.95;;;14.80;;
28007;SDS011;15333;50.010;20.020;2022-12-07T00:38:28;29.33;;;16.45;;
28007;SDS011;15333;50.010;20.020;2022-12-07T00:41:31;30.92;;;16.85;;
28007;SDS011;15333;50.010;20.020;2022-12-07T00:44:32;32.15;;;16.30;;
28007;SDS011;15333;50.010;20.020;2022-12-07T00:47:32;33.80;;;17.95;;
28007;SDS011;15333;50.010;20.020;2022-12-07T00:50:33;30.73;;;17.10;;
28007;SDS011;15333;50.010;20.020;2022-12-07T00:53:34;28.23;;;16.50;;
28007;SDS011;15333;50.010;20.020;2022-12-07T00:56:36;31.00;;;16.38;;
28007;SDS011;15333;50.010;20.020;2022-12-07T00:59:36;30.38;;;16.33;;
28007;SDS011;15333;50.010;20.020;2022-12-07T01:02:37;29.83;;;16.40;;
28007;SDS011;15333;50.010;20.020;2022-12-07T01:05:38;29.08;;;16.30;;
28007;SDS011;15333;50.010;20.020;2022-12-07T01:08:40;33.75;;;16.95;;
28007;SDS011;15333;50.010;20.020;2022-12-07T01:11:41;30.63;;;17.38;;
28007;SDS011;15333;50.010;20.020;2022-12-07T01:14:42;32.70;;;18.10;;
28007;SDS011;15333;50.010;20.020;2022-12-07T01:17:43;33.85;;;17.95;;
28007;SDS011;15333;50.010;20.020;2022-12-07T01:20:44;33.90;;;18.98;;
28007;SDS011;15333;50.010;20.020;2022-12-07T01:23:45;34.92;;;18.92;;
28007;SDS011;15333;50.010;20.020;2022-12-07T01:26:48;34.13;;;19.10;;
28007;SDS011;15333;50.010;20.020;2022-12-07T01:29:50;31.70;;;18.15;;
28007;SDS011;15333;50.010;20.020;2022-12-07T01:32:51;35.75;;;19.40;;
28007;SDS011;15333;50.010;20.020;2022-12-07T01:35:52;33.70;;;19.10;;
28007;SDS011;15333;50.010;20.020;2022-12-07T01:38:57;36.58;;;19.23;;
28007;SDS011;15333;50.010;20.020;2022-12-07T01:41:59;35.60;;;19.83;;
28007;SDS011;15333;50.010;20.020;2022-12-07T01:48:38;37.00;;;20.15;;
28007;SDS011;15333;50.010;20.020;2022-12-07T01:51:42;33.55;;;19.52;;
28007;SDS011;15333;50.010;20.020;2022-12-07T01:54:46;43.08;;;22.35;;
28007;SDS011;15333;50.010;20.020;2022-12-07T01:57:50;39.42;;;20.83;;
28007;SDS011;15333;50.010;20.020;2022-12-07T02:00:53;36.33;;;21.20;;
28007;SDS011;15333;50.010;20.020;2022-12-07T02:03:54;38.35;;;21.45;;
28007;SDS011;15333;50.010;20.020;2022-12-07T02:06:55;37.58;;;19.73;;
28007;SDS011;15333;50.010;20.020;2022-12-07T02:10:11;36.20;;;20.40;;
28007;SDS011;15333;50.010;20.020;2022-12-07T02:13:18;34.92;;;19.77;;
28007;SDS011;15333;50.010;20.020;2022-12-07T02:20:02;40.05;;;20.80;;
28007;SDS011;15333;50.010;20.020;2022-12-07T02:30:13;38.00;;;21.95;;
28007;SDS011;15333;50.010;20.020;2022-12-07T02:33:23;38.42;;;21.52;;
28007;SDS011;15333;50.010;20.020;2022-12-07T02:36:30;44.65;;;22.15;;
28007;SDS011;15333;50.010;20.020;2022-12-07T02:39:42;39.13;;;22.13;;
28007;SDS011;15333;50.010;20.020;2022-12-07T02:43:31;44.65;;;24.13;;
28007;SDS011;15333;50.010;20.020;2022-12-07T02:46:17;44.05;;;23.67;;
28007;SDS011;15333;50.010;20.020;2022-12-07T02:49:22;47.67;;;25.27;;
28007;SDS011;15333;50.010;20.020;2022-12-07T02:52:26;42.15;;;24.05;;
28007;SDS011;15333;50.010;20.020;2022-12-07T02:55:32;50.42;;;26.98;;
28007;SDS011;15333;50.010;20.020;2022-12-07T02:59:02;43.13;;;25.25;;
28007;SDS011;15333;50.010;20.020;2022-12-07T03:05:24;47.92;;;25.98;;
28007;SDS011;15333;50.010;20.020;2022-12-07T03:08:39;49.78;;;25.38;;
28007;SDS011;15333;50.010;20.020;2022-12-07T03:11:49;47.10;;;25.40;;
28007;SDS011;15333;50.010;20.020;2022-12-07T03:14:58;52.13;;;27.38;;
28007;SDS011;15333;50.010;20.020;2022-12-07T03:18:03;46.63;;;26.83;;
28007;SDS011;15333;50.010;20.020;2022-12-07T03:21:07;47.50;;;26.23;;
28007;SDS011;15333;50.010;20.020;2022-12-07T03:24:14;48.72;;;25.08;;
28007;SDS011;15333;50.010;20.020;2022-12-07T03:27:31;51.97;;;26.35;;
28007;SDS011;15333;50.010;20.020;2022-12-07T03:30:44;46.90;;;26.08;;
28007;SDS011;15333;50.010;20.020;2022-12-07T03:33:58;50.47;;;25.85;;
28007;SDS011;15333;50.010;20.020;2022-12-07T03:37:15;46.33;;;25.20;;
28007;SDS011;15333;50.010;20.020;2022-12-07T03:44:15;57.85;;;28.98;;
28007;SDS011;15333;50.010;20.020;2022-12-07T03:47:27;69.10;;;32.67;;
28007;SDS011;15333;50.010;20.020;2022-12-07T03:50:31;69.18;;;32.10;;
28007;SDS011;15333;50.010;20.020;2022-12-07T03:54:13;63.27;;;30.60;;
28007;SDS011;15333;50.010;20.020;2022-12-07T03:57:15;65.03;;;31.33;;
28007;SDS011;15333;50.010;20.020;2022-12-07T04:00:18;66.93;;;33.15;;
28007;SDS011;15333;50.010;20.020;2022-12-07T04:03:19;65.45;;;31.58;;
28007;SDS011;15333;50.010;20.020;2022-12-07T04:06:20;60.22;;;30.15;;
28007;SDS011;15333;50.010;20.020;2022-12-07T04:09:21;57.70;;;28.88;;
28007;SDS011;15333;50.010;20.020;2022-12-07T04:12:22;53.38;;;28.42;;
28007;SDS011;15333;50.010;20.020;2022-12-07T04:15:23;59.58;;;29.15;;
28007;SDS011;15333;50.010;20.020;2022-12-07T04:18:25;59.33;;;28.50;;
28007;SDS011;15333;50.010;20.020;2022-12-07T04:21:25;57.00;;;29.48;;
28007;SDS011;15333;50.010;20.020;2022-12-07T04:24:26;62.40;;;30.55;;
28007;SDS011;15333;50.010;20.020;2022-12-07T04:27:28;57.28;;;28.48;;
28007;SDS011;15333;50.010;20.020;2022-12-07T04:30:29;58.83;;;29.38;;
28007;SDS011;15333;50.010;20.020;2022-12-07T04:33:29;65.85;;;32.78;;
28007;SDS011;15333;50.010;20.020;2022-12-07T04:36:31;60.15;;;29.50;;
28007;SDS011;15333;50.010;20.020;2022-12-07T04:39:32;54.65;;;27.70;;
28007;SDS011;15333;50.010;20.020;2022-12-07T04:42:34;50.45;;;26.23;;
28007;SDS011;15333;50.010;20.020;2022-12-07T04:45:34;55.75;;;28.98;;
28007;SDS011;15333;50.010;20.020;2022-12-07T04:48:35;51.53;;;27.00;;
28007;SDS011;15333;50.010;20.020;2022-12-07T04:51:36;53.50;;;25.85;;
28007;SDS011;15333;50.010;20.020;2022-12-07T04:54:37;48.47;;;25.25;;
28007;SDS011;15333;50.010;20.020;2022-12-07T04:57:38;46.17;;;24.10;;
28007;SDS011;15333;50.010;20.020;2022-12-07T05:00:39;49.42;;;25.65;;
28007;SDS011;15333;50.010;20.020;2022-12-07T05:03:40;44.13;;;23.60;;
28007;SDS011;15333;50.010;20.020;2022-12-07T05:06:41;40.22;;;22.05;;
28007;SDS011;15333;50.010;20.020;2022-12-07T05:09:42;40.75;;;23.73;;
28007;SDS011;15333;50.010;20.020;2022-12-07T05:12:43;44.95;;;23.63;;
28007;SDS011;15333;50.010;20.020;2022-12-07T05:15:44;41.78;;;23.05;;
28007;SDS011;15333;50.010;20.020;2022-12-07T05:18:46;42.78;;;21.95;;
28007;SDS011;15333;50.010;20.020;2022-12-07T05:21:47;45.10;;;23.67;;
28007;SDS011;15333;50.010;20.020;2022-12-07T05:24:48;43.97;;;23.75;;
28007;SDS011;15333;50.010;20.020;2022-12-07T05:27:49;41.85;;;23.83;;
28007;SDS011;15333;50.010;20.020;2022-12-07T05:30:50;45.55;;;23.55;;
28007;SDS011;15333;50.010;20.020;2022-12-07T05:33:51;41.83;;;23.10;;
28007;SDS011;15333;50.010;20.020;2022-12-07T05:36:52;44.70;;;24.33;;
28007;SDS011;15333;50.010;20.020;2022-12-07T05:39:53;47.20;;;25.23;;
28007;SDS011;15333;50.010;20.020;2022-12-07T05:42:54;42.15;;;23.70;;
28007;SDS011;15333;50.010;20.020;2022-12-07T05:45:55;43.13;;;24.90;;
28007;SDS011;15333;50.010;20.020;2022-12-07T05:48:56;46.80;;;22.85;;
28007;SDS011;15333;50.010;20.020;2022-12-07T05:51:56;36.92;;;20.38;;
28007;SDS011;15333;50.010;20.020;2022-12-07T05:54:58;39.22;;;21.15;;
28007;SDS011;15333;50.010;20.020;2022-12-07T05:57:58;36.45;;;19.98;;
28007;SDS011;15333;50.010;20.020;2022-12-07T06:01:18;40.50;;;23.55;;
28007;SDS011;15333;50.010;20.020;2022-12-07T06:04:19;37.78;;;20.90;;
28007;SDS011;15333;50.010;20.020;2022-12-07T06:07:21;38.95;;;20.63;;
28007;SDS011;15333;50.010;20.020;2022-12-07T06:10:21;33.78;;;19.38;;
28007;SDS011;15333;50.010;20.020;2022-12-07T06:13:22;30.33;;;17.65;;
28007;SDS011;15333;50.010;20.020;2022-12-07T06:16:23;30.00;;;17.05;;
28007;SDS011;15333;50.010;20.020;2022-12-07T06:19:24;28.98;;;16.50;;
28007;SDS011;15333;50.010;20.020;2022-12-07T06:22:25;22.92;;;13.60;;
28007;SDS011;15333;50.010;20.020;2022-12-07T06:25:26;22.73;;;13.55;;
28007;SDS011;15333;50.010;20.020;2022-12-07T06:28:27;22.30;;;11.98;;
28007;SDS011;15333;50.010;20.020;2022-12-07T06:31:28;21.52;;;12.70;;
28007;SDS011;15333;50.010;20.020;2022-12-07T06:34:29;25.55;;;13.05;;
28007;SDS011;15333;50.010;20.020;2022-12-07T06:37:30;24.58;;;12.93;;
28007;SDS011;15333;50.010;20.020;2022-12-07T06:40:31;26.67;;;14.25;;
28007;SDS011;15333;50.010;20.020;2022-12-07T06:43:32;24.38;;;13.48;;
28007;SDS011;15333;50.010;20.020;2022-12-07T06:46:33;24.77;;;13.38;;
28007;SDS011;15333;50.010;20.020;2022-12-07T06:49:35;25.50;;;13.63;;
28007;SDS011;15333;50.010;20.020;2022-12-07T06:52:36;31.17;;;16.27;;
28007;SDS011;15333;50.010;20.020;2022-12-07T06:55:37;26.17;;;16.08;;
28007;SDS011;15333;50.010;20.020;2022-12-07T06:58:38;30.08;;;15.18;;
28007;SDS011;15333;50.010;20.020;2022-12-07T07:01:40;27.42;;;15.90;;
28007;SDS011;15333;50.010;20.020;2022-12-07T07:04:41;28.45;;;15.48;;
28007;SDS011;15333;50.010;20.020;2022-12-07T07:07:42;27.88;;;16.20;;
28007;SDS011;15333;50.010;20.020;2022-12-07T07:10:42;28.70;;;15.90;;
28007;SDS011;15333;50.010;20.020;2022-12-07T07:13:44;35.38;;;18.13;;
28007;SDS011;15333;50.010;20.020;2022-12-07T07:16:45;33.85;;;17.95;;
28007;SDS011;15333;50.010;20.020;2022-12-07T07:19:46;35.40;;;18.52;;
28007;SDS011;15333;50.010;20.020;2022-12-07T07:22:47;36.25;;;20.23;;
28007;SDS011;15333;50.010;20.020;2022-12-07T07:25:51;37.40;;;21.25;;
28007;SDS011;15333;50.010;20.020;2022-12-07T07:28:52;44.17;;;21.83;;
28007;SDS011;15333;50.010;20.020;2022-12-07T07:31:53;40.25;;;22.50;;
28007;SDS011;15333;50.010;20.020;2022-12-07T07:34:53;45.92;;;22.77;;
28007;SDS011;15333;50.010;20.020;2022-12-07T07:37:54;45.72;;;22.65;;
28007;SDS011;15333;50.010;20.020;2022-12-07T07:40:55;46.17;;;21.77;;
28007;SDS011;15333;50.010;20.020;2022-12-07T07:43:56;42.50;;;20.40;;
28007;SDS011;15333;50.010;20.020;2022-12-07T07:46:57;48.03;;;24.63;;
28007;SDS011;15333;50.010;20.020;2022-12-07T07:49:58;46.63;;;23.80;;
28007;SDS011;15333;50.010;20.020;2022-12-07T07:52:59;46.30;;;23.67;;
28007;SDS011;15333;50.010;20.020;2022-12-07T07:56:00;48.38;;;23.50;;
28007;SDS011;15333;50.010;20.020;2022-12-07T07:59:00;48.65;;;25.02;;
28007;SDS011;15333;50.010;20.020;2022-12-07T08:02:01;49.88;;;25.50;;
28007;SDS011;15333;50.010;20.020;2022-12-07T08:05:02;47.15;;;23.40;;
28007;SDS011;15333;50.010;20.020;2022-12-07T08:08:04;48.00;;;25.73;;
28007;SDS011;15333;50.010;20.020;2022-12-07T08:11:05;41.40;;;21.80;;
28007;SDS011;15333;50.010;20.020;2022-12-07T08:14:07;43.72;;;21.58;;
28007;SDS011;15333;50.010;20.020;2022-12-07T08:17:07;36.85;;;20.48;;
28007;SDS011;15333;50.010;20.020;2022-12-07T08:20:08;37.42;;;18.88;;
28007;SDS011;15333;50.010;20.020;2022-12-07T08:23:10;39.05;;;21.25;;
28007;SDS011;15333;50.010;20.020;2022-12-07T08:26:12;34.47;;;18.77;;
28007;SDS011;15333;50.010;20.020;2022-12-07T08:29:15;37.55;;;21.42;;
28007;SDS011;15333;50.010;20.020;2022-12-07T08:32:17;35.67;;;19.20;;
28007;SDS011;15333;50.010;20.020;2022-12-07T08:35:17;38.53;;;20.67;;
28007;SDS011;15333;50.010;20.020;2022-12-07T08:38:18;32.80;;;17.40;;
28007;SDS011;15333;50.010;20.020;2022-12-07T08:41:19;43.20;;;21.42;;
28007;SDS011;15333;50.010;20.020;2022-12-07T08:44:20;44.47;;;23.33;;
28007;SDS011;15333;50.010;20.020;2022-12-07T08:47:21;25.83;;;12.80;;
28007;SDS011;15333;50.010;20.020;2022-12-07T08:50:22;37.78;;;18.92;;
28007;SDS011;15333;50.010;20.020;2022-12-07T08:53:24;41.85;;;23.05;;
28007;SDS011;15333;50.010;20.020;2022-12-07T08:56:25;40.85;;;21.42;;
28007;SDS011;15333;50.010;20.020;2022-12-07T08:59:26;40.15;;;22.05;;
28007;SDS011;15333;50.010;20.020;2022-12-07T09:02:29;45.42;;;24.05;;
28007;SDS011;15333;50.010;20.020;2022-12-07T09:05:32;44.72;;;24.17;;
28007;SDS011;15333;50.010;20.020;2022-12-07T09:08:38;49.55;;;26.00;;
28007;SDS011;15333;50.010;20.020;2022-12-07T09:11:42;49.45;;;24.83;;
28007;SDS011;15333;50.010;20.020;2022-12-07T09:14:45;46.55;;;23.92;;
28007;SDS011;15333;50.010;20.020;2022-12-07T09:17:46;46.40;;;22.63;;
28007;SDS011;15333;50.010;20.020;2022-12-07T09:20:47;40.42;;;20.30;;
28007;SDS011;15333;50.010;20.020;2022-12-07T09:23:48;36.10;;;18.67;;
28007;SDS011;15333;50.010;20.020;2022-12-07T09:26:49;36.40;;;20.77;;
28007;SDS011;15333;50.010;20.020;2022-12-07T09:29:50;28.00;;;15.95;;
28007;SDS011;15333;50.010;20.020;2022-12-07T09:32:52;26.88;;;16.17;;
28007;SDS011;15333;50.010;20.020;2022-12-07T09:35:54;27.27;;;16.38;;
28007;SDS011;15333;50.010;20.020;2022-12-07T09:38:55;24.63;;;14.73;;
28007;SDS011;15333;50.010;20.020;2022-12-07T09:41:56;27.75;;;14.27;;
28007;SDS011;15333;50.010;20.020;2022-12-07T09:44:58;25.60;;;15.20;;
28007;SDS011;15333;50.010;20.020;2022-12-07T09:47:59;24.80;;;14.10;;
28007;SDS011;15333;50.010;20.020;2022-12-07T09:51:01;22.08;;;13.55;;
28007;SDS011;15333;50.010;20.020;2022-12-07T09:54:03;23.83;;;14.32;;
28007;SDS011;15333;50.010;20.020;2022-12-07T09:57:04;20.92;;;13.25;;
28007;SDS011;15333;50.010;20.020;2022-12-07T10:00:16;22.15;;;13.00;;
28007;SDS011;15333;50.010;20.020;2022-12-07T10:03:22;24.85;;;14.10;;
28007;SDS011;15333;50.010;20.020;2022-12-07T10:06:23;25.55;;;14.25;;
28007;SDS011;15333;50.010;20.020;2022-12-07T10:09:24;23.75;;;13.15;;
28007;SDS011;15333;50.010;20.020;2022-12-07T10:12:26;26.55;;;14.82;;
28007;SDS011;15333;50.010;20.020;2022-12-07T10:18:43;25.15;;;15.95;;
28007;SDS011;15333;50.010;20.020;2022-12-07T10:22:05;27.98;;;16.92;;
28007;SDS011;15333;50.010;20.020;2022-12-07T10:25:19;24.38;;;14.82;;
28007;SDS011;15333;50.010;20.020;2022-12-07T10:28:22;27.95;;;16.67;;
28007;SDS011;15333;50.010;20.020;2022-12-07T10:31:23;29.60;;;16.65;;
28007;SDS011;15333;50.010;20.020;2022-12-07T10:34:28;29.58;;;17.52;;
28007;SDS011;15333;50.010;20.020;2022-12-07T10:37:30;27.73;;;17.08;;
28007;SDS011;15333;50.010;20.020;2022-12-07T10:40:41;26.27;;;16.30;;
28007;SDS011;15333;50.010;20.020;2022-12-07T10:43:49;28.55;;;17.52;;
28007;SDS011;15333;50.010;20.020;2022-12-07T11:00:06;22.20;;;13.93;;
28007;SDS011;15333;50.010;20.020;2022-12-07T11:06:53;24.48;;;14.77;;
28007;SDS011;15333;50.010;20.020;2022-12-07T11:10:05;24.73;;;14.27;;
28007;SDS011;15333;50.010;20.020;2022-12-07T11:13:27;18.45;;;12.02;;
28007;SDS011;15333;50.010;20.020;2022-12-07T11:22:55;22.77;;;13.30;;
28007;SDS011;15333;50.010;20.020;2022-12-07T11:32:55;23.48;;;13.30;;
28007;SDS011;15333;50.010;20.020;2022-12-07T11:36:08;24.33;;;13.85;;
28007;SDS011;15333;50.010;20.020;2022-12-07T11:39:28;25.00;;;15.75;;
28007;SDS011;15333;50.010;20.020;2022-12-07T11:42:40;24.20;;;15.43;;
28007;SDS011;15333;50.010;20.020;2022-12-07T11:45:55;24.98;;;15.77;;
28007;SDS011;15333;50.010;20.020;2022-12-07T11:49:09;27.75;;;15.18;;
28007;SDS011;15333;50.010;20.020;2022-12-07T11:59:07;23.20;;;12.43;;
28007;SDS011;15333;50.010;20.020;2022-12-07T12:02:19;21.27;;;11.73;;
28007;SDS011;15333;50.010;20.020;2022-12-07T12:05:26;19.88;;;12.25;;
28007;SDS011;15333;50.010;20.020;2022-12-07T12:08:31;16.38;;;10.45;;
28007;SDS011;15333;50.010;20.020;2022-12-07T12:21:16;15.60;;;9.07;;
28007;SDS011;15333;50.010;20.020;2022-12-07T12:24:22;12.93;;;8.93;;
28007;SDS011;15333;50.010;20.020;2022-12-07T12:27:33;14.48;;;8.40;;
28007;SDS011;15333;50.010;20.020;2022-12-07T12:30:38;12.90;;;7.70;;
28007;SDS011;15333;50.010;20.020;2022-12-07T12:33:47;13.70;;;7.88;;
28007;SDS011;15333;50.010;20.020;2022-12-07T12:36:51;13.23;;;7.05;;
28007;SDS011;15333;50.010;20.020;2022-12-07T12:53:24;9.90;;;6.05;;
28007;SDS011;15333;50.010;20.020;2022-12-07T12:56:35;10.13;;;6.47;;
28007;SDS011;15333;50.010;20.020;2022-12-07T13:02:54;10.60;;;5.75;;
28007;SDS011;15333;50.010;20.020;2022-12-07T13:09:28;10.40;;;6.38;;
28007;SDS011;15333;50.010;20.020;2022-12-07T13:12:31;9.73;;;5.88;;
28007;SDS011;15333;50.010;20.020;2022-12-07T13:18:37;8.48;;;5.43;;
28007;SDS011;15333;50.010;20.020;2022-12-07T13:21:42;9.55;;;6.00;;
28007;SDS011;15333;50.010;20.020;2022-12-07T13:24:43;9.95;;;6.28;;
28007;SDS011;15333;50.010;20.020;2022-12-07T13:27:47;10.70;;;6.57;;
28007;SDS011;15333;50.010;20.020;2022-12-07T13:31:00;9.60;;;6.25;;
28007;SDS011;15333;50.010;20.020;2022-12-07T13:37:35;11.57;;;5.95;;
28007;SDS011;15333;50.010;20.020;2022-12-07T13:40:38;8.77;;;5.95;;
28007;SDS011;15333;50.010;20.020;2022-12-07T13:43:43;13.40;;;6.78;;
28007;SDS011;15333;50.010;20.020;2022-12-07T13:50:25;9.88;;;6.28;;
28007;SDS011;15333;50.010;20.020;2022-12-07T13:53:32;9.45;;;6.70;;
28007;SDS011;15333;50.010;20.020;2022-12-07T13:56:33;14.63;;;6.85;;
28007;SDS011;15333;50.010;20.020;2022-12-07T13:59:36;14.88;;;7.15;;
28007;SDS011;15333;50.010;20.020;2022-12-07T14:02:53;10.25;;;6.63;;
28007;SDS011;15333;50.010;20.020;2022-12-07T14:06:05;11.30;;;7.10;;
28007;SDS011;15333;50.010;20.020;2022-12-07T14:09:19;16.00;;;8.05;;
28007;SDS011;15333;50.010;20.020;2022-12-07T14:12:23;12.82;;;7.68;;
28007;SDS011;15333;50.010;20.020;2022-12-07T14:15:30;12.00;;;7.38;;
28007;SDS011;15333;50.010;20.020;2022-12-07T14:18:36;13.48;;;8.20;;
28007;SDS011;15333;50.010;20.020;2022-12-07T14:21:41;14.70;;;8.30;;
28007;SDS011;15333;50.010;20.020;2022-12-07T14:24:42;15.57;;;9.00;;
28007;SDS011;15333;50.010;20.020;2022-12-07T14:28:01;13.82;;;8.93;;
28007;SDS011;15333;50.010;20.020;2022-12-07T14:31:03;17.98;;;10.10;;
28007;SDS011;15333;50.010;20.020;2022-12-07T14:34:11;17.42;;;10.90;;
28007;SDS011;15333;50.010;20.020;2022-12-07T14:37:13;15.00;;;9.38;;
28007;SDS011;15333;50.010;20.020;2022-12-07T14:40:15;15.13;;;10.27;;
28007;SDS011;15333;50.010;20.020;2022-12-07T14:43:22;15.00;;;9.65;;
28007;SDS011;15333;50.010;20.020;2022-12-07T14:46:23;20.02;;;10.55;;
28007;SDS011;15333;50.010;20.020;2022-12-07T14:49:24;15.48;;;9.98;;
28007;SDS011;15333;50.010;20.020;2022-12-07T14:52:27;19.00;;;9.35;;
28007;SDS011;15333;50.010;20.020;2022-12-07T14:55:30;14.95;;;8.75;;
28007;SDS011;15333;50.010;20.020;2022-12-07T14:58:32;16.38;;;9.77;;
28007;SDS011;15333;50.010;20.020;2022-12-07T15:01:33;18.42;;;10.18;;
28007;SDS011;15333;50.010;20.020;2022-12-07T15:04:34;20.55;;;10.77;;
28007;SDS011;15333;50.010;20.020;2022-12-07T15:07:35;20.15;;;11.55;;
28007;SDS011;15333;50.010;20.020;2022-12-07T15:10:35;18.55;;;11.05;;
28007;SDS011;15333;50.010;20.020;2022-12-07T15:13:39;24.23;;;12.57;;
28007;SDS011;15333;50.010;20.020;2022-12-07T15:16:58;22.23;;;11.45;;
28007;SDS011;15333;50.010;20.020;2022-12-07T15:19:59;21.67;;;10.80;;
28007;SDS011;15333;50.010;20.020;2022-12-07T15:23:00;18.98;;;11.77;;
28007;SDS011;15333;50.010;20.020;2022-12-07T15:26:01;20.25;;;11.27;;
28007;SDS011;15333;50.010;20.020;2022-12-07T15:29:02;21.88;;;11.30;;
28007;SDS011;15333;50.010;20.020;2022-12-07T15:32:03;23.25;;;11.82;;
28007;SDS011;15333;50.010;20.020;2022-12-07T15:35:04;22.30;;;12.02;;
28007;SDS011;15333;50.010;20.020;2022-12-07T15:38:05;21.35;;;12.88;;
28007;SDS011;15333;50.010;20.020;2022-12-07T15:41:06;21.00;;;12.15;;
28007;SDS011;15333;50.010;20.020;2022-12-07T15:44:16;21.50;;;12.77;;
28007;SDS011;15333;50.010;20.020;2022-12-07T15:47:36;24.60;;;14.23;;
28007;SDS011;15333;50.010;20.020;2022-12-07T15:50:42;23.45;;;14.30;;
28007;SDS011;15333;50.010;20.020;2022-12-07T15:53:42;24.48;;;14.23;;
28007;SDS011;15333;50.010;20.020;2022-12-07T15:56:44;24.48;;;13.80;;
28007;SDS011;15333;50.010;20.020;2022-12-07T15:59:44;25.88;;;14.77;;
28007;SDS011;15333;50.010;20.020;2022-12-07T16:02:45;23.15;;;13.00;;
28007;SDS011;15333;50.010;20.020;2022-12-07T16:05:50;22.15;;;12.70;;
28007;SDS011;15333;50.010;20.020;2022-12-07T16:08:52;20.65;;;12.75;;
28007;SDS011;15333;50.010;20.020;2022-12-07T16:11:53;21.90;;;12.80;;
28007;SDS011;15333;50.010;20.020;2022-12-07T16:14:54;26.92;;;13.63;;
28007;SDS011;15333;50.010;20.020;2022-12-07T16:17:54;22.63;;;13.63;;
28007;SDS011;15333;50.010;20.020;2022-12-07T16:20:56;21.90;;;12.90;;
28007;SDS011;15333;50.010;20.020;2022-12-07T16:23:57;23.00;;;13.20;;
28007;SDS011;15333;50.010;20.020;2022-12-07T16:26:59;25.90;;;13.75;;
28007;SDS011;15333;50.010;20.020;2022-12-07T16:30:00;23.40;;;13.60;;
28007;SDS011;15333;50.010;20.020;2022-12-07T16:33:01;23.90;;;13.23;;
28007;SDS011;15333;50.010;20.020;2022-12-07T16:36:02;23.88;;;14.15;;
28007;SDS011;15333;50.010;20.020;2022-12-07T16:39:04;23.88;;;13.13;;
28007;SDS011;15333;50.010;20.020;2022-12-07T16:42:05;26.33;;;14.25;;
28007;SDS011;15333;50.010;20.020;2022-12-07T16:45:07;24.33;;;14.70;;
28007;SDS011;15333;50.010;20.020;2022-12-07T16:48:08;25.02;;;14.35;;
28007;SDS011;15333;50.010;20.020;2022-12-07T16:51:10;25.73;;;14.35;;
28007;SDS011;15333;50.010;20.020;2022-12-07T16:54:12;27.30;;;13.98;;
28007;SDS011;15333;50.010;20.020;2022-12-07T16:57:14;28.50;;;15.40;;
28007;SDS011;15333;50.010;20.020;2022-12-07T17:00:15;25.33;;;13.70;;
28007;SDS011;15333;50.010;20.020;2022-12-07T17:03:17;25.85;;;14.15;;
28007;SDS011;15333;50.010;20.020;2022-12-07T17:06:19;22.77;;;13.52;;
28007;SDS011;15333;50.010;20.020;2022-12-07T17:09:21;22.30;;;13.23;;
28007;SDS011;15333;50.010;20.020;2022-12-07T17:12:22;23.20;;;12.65;;
28007;SDS011;15333;50.010;20.020;2022-12-07T17:15:23;24.95;;;13.57;;
28007;SDS011;15333;50.010;20.020;2022-12-07T17:18:26;23.80;;;13.07;;
28007;SDS011;15333;50.010;20.020;2022-12-07T17:21:28;22.00;;;13.32;;
28007;SDS011;15333;50.010;20.020;2022-12-07T17:24:29;21.13;;;12.02;;
28007;SDS011;15333;50.010;20.020;2022-12-07T17:27:30;21.50;;;11.63;;
28007;SDS011;15333;50.010;20.020;2022-12-07T17:30:32;22.90;;;11.00;;
28007;SDS011;15333;50.010;20.020;2022-12-07T17:33:33;20.20;;;12.05;;
28007;SDS011;15333;50.010;20.020;2022-12-07T17:36:34;20.90;;;12.05;;
28007;SDS011;15333;50.010;20.020;2022-12-07T17:39:35;22.85;;;11.52;;
28007;SDS011;15333;50.010;20.020;2022-12-07T17:42:36;28.63;;;11.80;;
28007;SDS011;15333;50.010;20.020;2022-12-07T17:45:37;22.67;;;12.80;;
28007;SDS011;15333;50.010;20.020;2022-12-07T17:48:38;23.85;;;11.32;;
28007;SDS011;15333;50.010;20.020;2022-12-07T17:51:39;21.80;;;12.35;;
28007;SDS011;15333;50.010;20.020;2022-12-07T17:54:59;21.23;;;12.05;;
28007;SDS011;15333;50.010;20.020;2022-12-07T17:58:00;21.38;;;12.02;;
28007;SDS011;15333;50.010;20.020;2022-12-07T18:01:00;20.90;;;11.38;;
28007;SDS011;15333;50.010;20.020;2022-12-07T18:04:02;24.30;;;13.32;;
28007;SDS011;15333;50.010;20.020;2022-12-07T18:07:03;23.05;;;12.52;;
28007;SDS011;15333;50.010;20.020;2022-12-07T18:10:06;24.27;;;13.18;;
28007;SDS011;15333;50.010;20.020;2022-12-07T18:13:08;27.48;;;13.93;;
28007;SDS011;15333;50.010;20.020;2022-12-07T18:16:28;22.63;;;13.50;;
28007;SDS011;15333;50.010;20.020;2022-12-07T18:19:30;22.08;;;12.85;;
28007;SDS011;15333;50.010;20.020;2022-12-07T18:22:32;22.00;;;12.02;;
28007;SDS011;15333;50.010;20.020;2022-12-07T18:25:33;22.10;;;12.20;;
28007;SDS011;15333;50.010;20.020;2022-12-07T18:28:34;22.33;;;12.30;;
28007;SDS011;15333;50.010;20.020;2022-12-07T18:31:35;23.90;;;11.05;;
28007;SDS011;15333;50.010;20.020;2022-12-07T18:34:36;16.83;;;9.88;;
28007;SDS011;15333;50.010;20.020;2022-12-07T18:37:37;17.48;;;9.55;;
28007;SDS011;15333;50.010;20.020;2022-12-07T18:40:39;16.70;;;9.40;;
28007;SDS011;15333;50.010;20.020;2022-12-07T18:43:40;19.27;;;10.48;;
28007;SDS011;15333;50.010;20.020;2022-12-07T18:46:42;17.35;;;10.13;;
28007;SDS011;15333;50.010;20.020;2022-12-07T18:49:43;19.35;;;10.75;;
28007;SDS011;15333;50.010;20.020;2022-12-07T18:52:44;24.95;;;10.73;;
28007;SDS011;15333;50.010;20.020;2022-12-07T18:55:45;22.63;;;11.05;;
28007;SDS011;15333;50.010;20.020;2022-12-07T18:58:49;20.20;;;11.43;;
28007;SDS011;15333;50.010;20.020;2022-12-07T19:02:13;26.50;;;12.85;;
28007;SDS011;15333;50.010;20.020;2022-12-07T19:05:15;25.38;;;14.38;;
28007;SDS011;15333;50.010;20.020;2022-12-07T19:08:16;28.63;;;15.70;;
28007;SDS011;15333;50.010;20.020;2022-12-07T19:11:18;37.33;;;17.13;;
28007;SDS011;15333;50.010;20.020;2022-12-07T19:14:47;32.45;;;16.65;;
28007;SDS011;15333;50.010;20.020;2022-12-07T19:17:48;34.10;;;17.83;;
28007;SDS011;15333;50.010;20.020;2022-12-07T19:20:49;33.58;;;18.38;;
28007;SDS011;15333;50.010;20.020;2022-12-07T19:23:50;35.80;;;19.08;;